WetterOnline ( http://www.wetteronline.de )

Wetter aktuell Giesensdorf

Aktuelles Wetter: Lübeck/Blankensee (15m)

6-stündlich | Neueste Meldungen
Ortszeit Temperatur Wetter
Mo, 23.04. 14:00 16.6° C leicht bewölkt
Mo, 23.04. 8:00 15.3° C leicht bewölkt
Mo, 23.04. 2:00 14.0° C bewölkt
So, 22.04. 20:00 14.9° C fast wolkenlos
So, 22.04. 14:00 17.8° C wolkenlos
So, 22.04. 8:00 7.4° C leicht bewölkt
So, 22.04. 2:00 5.9° C wolkig
Sa, 21.04. 20:00 15.9° C wolkenlos
Ortszeit Temperatur Wetter
Mo, 23.04. 16:50 16° C leicht bewölkt
Mo, 23.04. 16:30 17.0° C wolkig
Mo, 23.04. 16:20 17.0° C wolkig
Mo, 23.04. 16:10 16.9° C bewölkt
Mo, 23.04. 16:00 17.3° C wolkig
Mo, 23.04. 15:50 17.3° C wolkig
Mo, 23.04. 15:30 16.6° C wolkig
Mo, 23.04. 15:00 16.0° C wolkig
Mo, 23.04. 14:30 16.4° C wolkig
Mo, 23.04. 14:00 16.6° C leicht bewölkt
Mo, 23.04. 13:30 15.5° C leicht bewölkt
Ortszeit Relative Feuchte Sichtweite
Mo, 23.04. 14:00 57% 23 km
Mo, 23.04. 8:00 78% 13 km
Mo, 23.04. 2:00 79% 18 km
So, 22.04. 20:00 65% 27 km
So, 22.04. 14:00 39% 40 km
So, 22.04. 8:00 80% 14 km
So, 22.04. 2:00 92% 20 km
Sa, 21.04. 20:00 44% 45 km
Ortszeit Relative Feuchte Sichtweite
Mo, 23.04. 16:50 55% >10 km
Mo, 23.04. 16:30 50% 25 km
Mo, 23.04. 16:20 50% -
Mo, 23.04. 16:10 49% -
Mo, 23.04. 16:00 48% 27 km
Mo, 23.04. 15:50 48% -
Mo, 23.04. 15:30 50% 30 km
Mo, 23.04. 15:00 50% 30 km
Mo, 23.04. 14:30 53% 24 km
Mo, 23.04. 14:00 57% 23 km
Mo, 23.04. 13:30 65% 15 km
Ortszeit Niederschlagsmenge Niederschlagsart
Mo, 23.04. 14:00 0.1 l/m2 in 6 Std. Regen
Mo, 23.04. 8:00 0.0 l/m2 in 12 Std. -
Mo, 23.04. 2:00 0.0 l/m2 in 6 Std. -
So, 22.04. 20:00 0.0 l/m2 in 12 Std. -
So, 22.04. 14:00 0.0 l/m2 in 6 Std. -
So, 22.04. 8:00 0.0 l/m2 in 12 Std. -
So, 22.04. 2:00 0.0 l/m2 in 6 Std. -
Sa, 21.04. 20:00 0.0 l/m2 in 12 Std. -
Ortszeit Niederschlagsmenge Niederschlagsart
Mo, 23.04. 16:50 keine Meldung -
Mo, 23.04. 16:30 0.0 l/m2 in 1 Std. -
Mo, 23.04. 16:20 keine Meldung -
Mo, 23.04. 16:10 keine Meldung -
Mo, 23.04. 16:00 0.0 l/m2 in 1 Std. -
Mo, 23.04. 15:50 keine Meldung -
Mo, 23.04. 15:30 0.0 l/m2 in 1 Std. -
Mo, 23.04. 15:00 0.0 l/m2 in 1 Std. -
Mo, 23.04. 14:30 0.0 l/m2 in 1 Std. -
Mo, 23.04. 14:00 0.0 l/m2 in 1 Std. Regen
Mo, 23.04. 13:30 0.0 l/m2 in 1 Std. -
Ortszeit Stärke Spitze Richtung
km/h Bft. km/h Grad Sektor
Mo, 23.04. 14:00 25 4 43 270° W
Mo, 23.04. 8:00 11 2 29 240° SW
Mo, 23.04. 2:00 4 1 18 220° SW
So, 22.04. 20:00 14 3 25 60° NO
So, 22.04. 14:00 9 2 20 130° SO
So, 22.04. 8:00 0 0 4 - -
So, 22.04. 2:00 4 1 11 230° SW
Sa, 21.04. 20:00 7 2 25 310° NW
Ortszeit Stärke Spitze Richtung
km/h Bft. km/h Grad Sektor
Mo, 23.04. 16:50 19 3 - 280° W
Mo, 23.04. 16:30 25 4 47 270° W
Mo, 23.04. 16:20 25 4 - 270° W
Mo, 23.04. 16:10 25 4 - 280° W
Mo, 23.04. 16:00 22 4 40 280° W
Mo, 23.04. 15:50 22 4 - 280° W
Mo, 23.04. 15:30 22 4 41 280° W
Mo, 23.04. 15:00 28 4 44 270° W
Mo, 23.04. 14:30 28 4 43 280° W
Mo, 23.04. 14:00 25 4 43 270° W
Mo, 23.04. 13:30 24 4 41 270° W
Ortszeit Untergrenze Bedeckung Gattung
total tief tief mittel hoch
Mo, 23.04. 14:00 870 m 3/8 3/8 - - -
Mo, 23.04. 8:00 4200 m 3/8 1/8 - - -
Mo, 23.04. 2:00 2700 m 8/8 7/8 - - -
So, 22.04. 20:00 3300 m 1/8 1/8 - - -
So, 22.04. 14:00 - 0/8 0/8 - - -
So, 22.04. 8:00 10500 m 7/8 0/8 - - -
So, 22.04. 2:00 9000 m 8/8 0/8 - - -
Sa, 21.04. 20:00 - 0/8 0/8 - - -
Ortszeit Bedeckungsgrad in Achtel und Wolkenuntergrenze
Mo, 23.04. 16:50 3-4(1140m)
Mo, 23.04. 16:30 6(1800m) 6(8100m)
Mo, 23.04. 16:20 6(1800m) 6(8100m)
Mo, 23.04. 16:10 6(1500m) 7(8100m)
Mo, 23.04. 16:00 4(1500m) 5(1800m) 7(8100m)
Mo, 23.04. 15:50 4(1500m) 5(1800m) 7(8100m)
Mo, 23.04. 15:30 1(1410m) 6(7200m) 7(8100m)
Mo, 23.04. 15:00 4(1470m) 5(1800m)
Mo, 23.04. 14:30 4(1140m) 5(1440m) 5(7500m)
Mo, 23.04. 14:00 2(870m) 3(1080m)
Mo, 23.04. 13:30 1(570m) 3(750m)
Ortszeit Luftdruck NN (hPa) Tendenz (hPa in 3 Std.)
Mo, 23.04. 14:00 1012 + 1,2
Mo, 23.04. 8:00 1008 0,0
Mo, 23.04. 2:00 1009 - 0,1
So, 22.04. 20:00 1011 - 1,5
So, 22.04. 14:00 1015 - 2,1
So, 22.04. 8:00 1018 - 0,7
So, 22.04. 2:00 1020 - 0,3
Sa, 21.04. 20:00 1020 - 0,5
Ortszeit Luftdruck NN (hPa) Tendenz (hPa in 3 Std.)
Mo, 23.04. 16:50 1012 keine Meldung
Mo, 23.04. 16:30 1012 + 0,3
Mo, 23.04. 16:20 1012 keine Meldung
Mo, 23.04. 16:10 1012 keine Meldung
Mo, 23.04. 16:00 1012 + 0,5
Mo, 23.04. 15:50 1012 keine Meldung
Mo, 23.04. 15:30 1012 + 0,8
Mo, 23.04. 15:00 1012 + 0,9
Mo, 23.04. 14:30 1012 + 1,0
Mo, 23.04. 14:00 1012 + 1,2
Mo, 23.04. 13:30 1012 + 1,6
Ortszeit Schneehöhe (cm)
Mo, 23.04. 14:00 0
Mo, 23.04. 8:00 0
Mo, 23.04. 2:00 0
So, 22.04. 20:00 0
So, 22.04. 14:00 0
So, 22.04. 8:00 0
So, 22.04. 2:00 0
Sa, 21.04. 20:00 0
Ortszeit Schneehöhe (cm)
Mo, 23.04. 16:50 -
Mo, 23.04. 16:30 0
Mo, 23.04. 16:20 0
Mo, 23.04. 16:10 0
Mo, 23.04. 16:00 0
Mo, 23.04. 15:50 0
Mo, 23.04. 15:30 0
Mo, 23.04. 15:00 0
Mo, 23.04. 14:30 0
Mo, 23.04. 14:00 0
Mo, 23.04. 13:30 0
Link zu dieser Seite / Seite empfehlen

Das Wetter in ...